Time;durP1;ratioP1;P1;durP2;ratioP2;P2;SDS_P1;SDS_P2;PMS_P1;PMS_P2;Temp;Humidity;BMP_temperature;BMP_pressure;BME280_temperature;BME280_humidity;BME280_pressure;Samples;Min_cycle;Max_cycle;Signal;HPM_P1;HPM_P2
2022/03/04 00:01:56;;;;;;;13.77;8.38;;;;;;;;;;4970898;28;20202;-75
2022/03/04 00:04:23;;;;;;;12.88;9.05;;;;;;;;;;4971796;28;20253;-75
2022/03/04 00:06:50;;;;;;;13.70;9.07;;;;;;;;;;4967490;28;20197;-76
2022/03/04 00:09:19;;;;;;;17.33;10.25;;;;;;;;;;4965031;28;20205;-76
2022/03/04 00:11:46;;;;;;;11.95;8.63;;;;;;;;;;4970001;28;20225;-75
2022/03/04 00:14:13;;;;;;;15.75;10.77;;;;;;;;;;4971346;28;20240;-76
2022/03/04 00:16:40;;;;;;;14.50;11.00;;;;;;;;;;4969930;28;20206;-74
2022/03/04 00:19:10;;;;;;;14.20;10.75;;;;;;;;;;4970867;28;20201;-75
2022/03/04 00:21:37;;;;;;;14.95;9.15;;;;;;;;;;4964678;28;20720;-76
2022/03/04 00:24:05;;;;;;;14.50;10.32;;;;;;;;;;4962053;28;20218;-75
2022/03/04 00:26:32;;;;;;;17.75;11.40;;;;;;;;;;4972306;28;20201;-75
2022/03/04 00:28:59;;;;;;;13.50;9.63;;;;;;;;;;4972945;28;20194;-76
2022/03/04 00:31:26;;;;;;;15.43;10.13;;;;;;;;;;4970610;28;20193;-76
2022/03/04 00:33:53;;;;;;;15.23;10.43;;;;;;;;;;4969914;28;20627;-75
2022/03/04 00:36:23;;;;;;;16.05;10.48;;;;;;;;;;4964699;28;20249;-76
2022/03/04 00:38:50;;;;;;;17.35;9.55;;;;;;;;;;4968486;28;20205;-75
2022/03/04 00:41:18;;;;;;;14.50;9.02;;;;;;;;;;4965568;28;20281;-75
2022/03/04 00:43:45;;;;;;;13.60;10.05;;;;;;;;;;4972185;28;20201;-75
2022/03/04 00:46:13;;;;;;;10.15;8.38;;;;;;;;;;4963926;28;20239;-75
2022/03/04 00:48:40;;;;;;;14.10;9.77;;;;;;;;;;4961868;28;20233;-76
2022/03/04 00:51:07;;;;;;;12.50;9.05;;;;;;;;;;4970841;28;20205;-75
2022/03/04 00:53:35;;;;;;;13.02;9.50;;;;;;;;;;4966024;28;20604;-78
2022/03/04 00:56:03;;;;;;;14.75;9.43;;;;;;;;;;4969138;28;20208;-79
2022/03/04 00:58:30;;;;;;;13.43;9.48;;;;;;;;;;4966590;28;20202;-78
2022/03/04 01:00:57;;;;;;;13.27;9.07;;;;;;;;;;4968470;28;20193;-75
2022/03/04 01:03:24;;;;;;;12.35;9.52;;;;;;;;;;4972149;28;20202;-75
2022/03/04 01:05:51;;;;;;;12.00;8.90;;;;;;;;;;4969724;28;20560;-75
2022/03/04 01:08:18;;;;;;;12.93;9.27;;;;;;;;;;4968641;28;20565;-75
2022/03/04 01:10:47;;;;;;;11.38;8.57;;;;;;;;;;4971923;28;20220;-76
2022/03/04 01:13:14;;;;;;;15.93;9.82;;;;;;;;;;4972207;28;20244;-75
2022/03/04 01:15:41;;;;;;;13.43;9.48;;;;;;;;;;4968993;28;20568;-75
2022/03/04 01:18:08;;;;;;;15.10;10.38;;;;;;;;;;4971109;28;20210;-75
2022/03/04 01:20:35;;;;;;;11.52;8.27;;;;;;;;;;4968520;28;20201;-74
2022/03/04 01:23:02;;;;;;;13.05;8.52;;;;;;;;;;4962377;28;20205;-74
2022/03/04 01:25:29;;;;;;;19.52;10.48;;;;;;;;;;4968399;28;20221;-74
2022/03/04 01:27:58;;;;;;;12.18;8.77;;;;;;;;;;4966683;28;20198;-76
2022/03/04 01:30:25;;;;;;;10.48;8.50;;;;;;;;;;4965415;28;20224;-74
2022/03/04 01:32:52;;;;;;;14.70;10.63;;;;;;;;;;4966609;28;20218;-76
2022/03/04 01:35:19;;;;;;;13.75;8.40;;;;;;;;;;4962786;28;20216;-78
2022/03/04 01:37:47;;;;;;;12.90;9.68;;;;;;;;;;4966636;28;20206;-77
2022/03/04 01:40:14;;;;;;;16.13;10.02;;;;;;;;;;4962756;28;20557;-74
2022/03/04 01:42:41;;;;;;;11.95;8.63;;;;;;;;;;4966997;28;20657;-74
2022/03/04 01:45:11;;;;;;;12.00;8.07;;;;;;;;;;4963558;28;20206;-75
2022/03/04 01:47:41;;;;;;;12.45;9.38;;;;;;;;;;4961331;28;20193;-75
2022/03/04 01:50:09;;;;;;;13.77;8.93;;;;;;;;;;4965518;28;20190;-74
2022/03/04 01:52:36;;;;;;;13.50;8.55;;;;;;;;;;4967454;28;20226;-74
2022/03/04 01:55:03;;;;;;;14.10;9.00;;;;;;;;;;4965317;28;20201;-77
2022/03/04 01:57:30;;;;;;;13.75;9.40;;;;;;;;;;4963469;28;20557;-74
2022/03/04 01:59:57;;;;;;;14.10;9.15;;;;;;;;;;4971785;28;20202;-75
2022/03/04 02:02:25;;;;;;;13.20;9.13;;;;;;;;;;4969365;28;20208;-74
2022/03/04 02:04:52;;;;;;;14.90;9.63;;;;;;;;;;4972336;28;20197;-73
2022/03/04 02:07:19;;;;;;;18.50;9.93;;;;;;;;;;4966064;28;20652;-75
2022/03/04 02:09:47;;;;;;;12.48;9.10;;;;;;;;;;4970968;28;20702;-77
2022/03/04 02:12:14;;;;;;;13.73;9.27;;;;;;;;;;4964562;28;20209;-74
2022/03/04 02:14:41;;;;;;;11.85;8.35;;;;;;;;;;4963656;28;20234;-75
2022/03/04 02:17:08;;;;;;;14.40;9.50;;;;;;;;;;4968763;28;20197;-73
2022/03/04 02:19:37;;;;;;;13.77;9.88;;;;;;;;;;4970125;28;20201;-74
2022/03/04 02:22:07;;;;;;;10.60;8.00;;;;;;;;;;4963383;28;20557;-74
2022/03/04 02:24:34;;;;;;;11.95;8.23;;;;;;;;;;4962578;28;20253;-74
2022/03/04 02:27:02;;;;;;;11.05;8.50;;;;;;;;;;4963890;28;20530;-74
2022/03/04 02:29:31;;;;;;;13.88;9.23;;;;;;;;;;4966784;28;20212;-75
2022/03/04 02:31:58;;;;;;;14.25;8.60;;;;;;;;;;4964755;28;20563;-75
2022/03/04 02:34:25;;;;;;;14.43;9.00;;;;;;;;;;4971380;28;20240;-74
2022/03/04 02:36:52;;;;;;;14.85;9.55;;;;;;;;;;4965935;28;20661;-73
2022/03/04 02:39:20;;;;;;;11.40;9.05;;;;;;;;;;4971781;28;20596;-74
2022/03/04 02:41:47;;;;;;;12.65;7.82;;;;;;;;;;4964311;28;20202;-74
2022/03/04 02:44:15;;;;;;;14.05;9.50;;;;;;;;;;4970052;28;20206;-73
2022/03/04 02:46:42;;;;;;;15.65;9.52;;;;;;;;;;4968949;28;20204;-75
2022/03/04 02:49:10;;;;;;;14.70;8.18;;;;;;;;;;4967050;28;20285;-75
2022/03/04 02:51:37;;;;;;;19.80;10.02;;;;;;;;;;4971235;28;20198;-76
2022/03/04 02:54:05;;;;;;;15.10;8.98;;;;;;;;;;4970377;28;20221;-75
2022/03/04 02:56:34;;;;;;;14.45;8.95;;;;;;;;;;4973048;28;20201;-78
2022/03/04 02:59:01;;;;;;;12.00;8.73;;;;;;;;;;4968194;28;20198;-75
2022/03/04 03:01:28;;;;;;;12.98;8.95;;;;;;;;;;4976691;28;20604;-77
2022/03/04 03:03:55;;;;;;;14.63;9.95;;;;;;;;;;4972240;28;20209;-78
2022/03/04 03:06:22;;;;;;;14.50;9.85;;;;;;;;;;4970738;28;20197;-78
2022/03/04 03:08:49;;;;;;;16.48;10.68;;;;;;;;;;4967479;28;20713;-77
2022/03/04 03:11:16;;;;;;;14.05;9.40;;;;;;;;;;4971043;28;20189;-74
2022/03/04 03:13:45;;;;;;;15.48;10.48;;;;;;;;;;4976668;28;20228;-74
2022/03/04 03:16:12;;;;;;;16.35;9.02;;;;;;;;;;4965051;28;20197;-74
2022/03/04 03:18:39;;;;;;;20.42;11.80;;;;;;;;;;4971177;28;20201;-73
2022/03/04 03:21:06;;;;;;;12.35;9.70;;;;;;;;;;4973842;28;20205;-74
2022/03/04 03:23:33;;;;;;;14.63;10.27;;;;;;;;;;4978254;28;20225;-74
2022/03/04 03:26:00;;;;;;;12.95;9.48;;;;;;;;;;4961577;28;20667;-76
2022/03/04 03:28:27;;;;;;;16.98;10.55;;;;;;;;;;4970788;28;20208;-74
2022/03/04 03:30:56;;;;;;;13.27;9.25;;;;;;;;;;4978593;28;20199;-74
2022/03/04 03:33:23;;;;;;;13.32;8.80;;;;;;;;;;4972776;28;20221;-74
2022/03/04 03:35:54;;;;;;;16.98;10.18;;;;;;;;;;4985571;28;20222;-74
2022/03/04 03:38:21;;;;;;;12.90;8.98;;;;;;;;;;4978589;28;20201;-75
2022/03/04 03:40:48;;;;;;;15.13;8.90;;;;;;;;;;4970311;28;20225;-74
2022/03/04 03:43:15;;;;;;;11.90;8.77;;;;;;;;;;4979911;28;20280;-75
2022/03/04 03:45:42;;;;;;;15.57;9.88;;;;;;;;;;4973957;28;20205;-74
2022/03/04 03:48:11;;;;;;;15.55;10.05;;;;;;;;;;4973979;28;20201;-74
2022/03/04 03:50:38;;;;;;;17.73;10.00;;;;;;;;;;4974821;28;20205;-74
2022/03/04 03:53:06;;;;;;;14.32;9.02;;;;;;;;;;4971853;28;20220;-74
2022/03/04 03:55:33;;;;;;;15.20;10.20;;;;;;;;;;4972267;28;20197;-76
2022/03/04 03:58:00;;;;;;;14.75;9.65;;;;;;;;;;4974225;28;20656;-73
2022/03/04 04:00:27;;;;;;;14.27;9.98;;;;;;;;;;4973333;28;20228;-74
2022/03/04 04:02:54;;;;;;;13.30;9.77;;;;;;;;;;4977783;28;20197;-74
2022/03/04 04:05:23;;;;;;;15.65;9.63;;;;;;;;;;4982639;28;20205;-74
2022/03/04 04:07:50;;;;;;;12.85;8.80;;;;;;;;;;4976321;28;20206;-74
2022/03/04 04:10:17;;;;;;;19.38;9.65;;;;;;;;;;4975535;28;20203;-74
2022/03/04 04:12:44;;;;;;;14.93;10.55;;;;;;;;;;4975169;28;20201;-74
2022/03/04 04:15:11;;;;;;;16.73;10.38;;;;;;;;;;4978202;28;20395;-74
2022/03/04 04:17:38;;;;;;;13.57;9.43;;;;;;;;;;4973848;28;20194;-74
2022/03/04 04:20:06;;;;;;;17.20;11.63;;;;;;;;;;4980322;28;20189;-74
2022/03/04 04:22:34;;;;;;;16.58;10.73;;;;;;;;;;4980673;28;20557;-74
2022/03/04 04:25:01;;;;;;;12.30;9.57;;;;;;;;;;4977545;28;20827;-74
2022/03/04 04:27:28;;;;;;;14.18;9.45;;;;;;;;;;4974231;28;20672;-73
2022/03/04 04:29:56;;;;;;;20.25;11.02;;;;;;;;;;4969047;28;20284;-74
2022/03/04 04:32:24;;;;;;;14.02;9.90;;;;;;;;;;4977142;28;20284;-75
2022/03/04 04:34:51;;;;;;;13.63;9.65;;;;;;;;;;4975424;28;20221;-74
2022/03/04 04:37:18;;;;;;;16.40;9.90;;;;;;;;;;4974077;28;20204;-75
2022/03/04 04:39:46;;;;;;;17.08;10.55;;;;;;;;;;4973563;28;20667;-74
2022/03/04 04:42:13;;;;;;;13.73;10.00;;;;;;;;;;4976792;28;20704;-73
2022/03/04 04:44:40;;;;;;;15.10;10.45;;;;;;;;;;4966129;28;20198;-74
2022/03/04 04:47:07;;;;;;;14.50;9.82;;;;;;;;;;4973727;28;20197;-74
2022/03/04 04:49:36;;;;;;;15.15;10.50;;;;;;;;;;4971318;28;20555;-74
2022/03/04 04:52:04;;;;;;;13.07;9.77;;;;;;;;;;4972804;28;20512;-74
2022/03/04 04:54:31;;;;;;;15.70;10.13;;;;;;;;;;4974794;28;20708;-74
2022/03/04 04:57:00;;;;;;;15.40;10.40;;;;;;;;;;4971596;28;20206;-74
2022/03/04 04:59:27;;;;;;;14.82;10.82;;;;;;;;;;4980512;28;20202;-75
2022/03/04 05:01:54;;;;;;;12.63;9.70;;;;;;;;;;4967533;28;20201;-74
2022/03/04 05:04:21;;;;;;;17.58;9.90;;;;;;;;;;4970764;28;20200;-74
2022/03/04 05:06:48;;;;;;;16.35;9.82;;;;;;;;;;4974145;28;20198;-73
2022/03/04 05:09:15;;;;;;;16.25;10.02;;;;;;;;;;4978843;28;20208;-74
2022/03/04 05:11:42;;;;;;;14.23;9.85;;;;;;;;;;4977755;28;20202;-76
2022/03/04 05:14:11;;;;;;;16.77;9.80;;;;;;;;;;4963891;28;20213;-73
2022/03/04 05:16:38;;;;;;;15.93;11.23;;;;;;;;;;4967453;28;20197;-74
2022/03/04 05:19:05;;;;;;;17.65;11.30;;;;;;;;;;4977625;28;20197;-74
2022/03/04 05:21:32;;;;;;;14.52;10.90;;;;;;;;;;4974421;28;20201;-74
2022/03/04 05:24:03;;;;;;;14.82;10.30;;;;;;;;;;4985646;28;20224;-75
2022/03/04 05:26:30;;;;;;;14.85;10.05;;;;;;;;;;4972874;28;20205;-75
2022/03/04 05:28:58;;;;;;;14.52;10.20;;;;;;;;;;4972395;28;20190;-74
2022/03/04 05:31:26;;;;;;;13.00;9.55;;;;;;;;;;4966449;28;20205;-74
2022/03/04 05:33:54;;;;;;;17.65;10.75;;;;;;;;;;4967574;28;20723;-75
2022/03/04 05:36:21;;;;;;;18.80;12.20;;;;;;;;;;4973519;28;20769;-74
2022/03/04 05:38:48;;;;;;;16.63;10.95;;;;;;;;;;4969324;28;20553;-73
2022/03/04 05:41:16;;;;;;;13.75;9.43;;;;;;;;;;4973715;28;20614;-73
2022/03/04 05:43:43;;;;;;;17.15;11.57;;;;;;;;;;4960224;28;20206;-74
2022/03/04 05:46:10;;;;;;;17.20;10.73;;;;;;;;;;4976906;28;20201;-74
2022/03/04 05:48:38;;;;;;;17.00;10.70;;;;;;;;;;4978911;28;20196;-74
2022/03/04 05:51:05;;;;;;;15.98;11.25;;;;;;;;;;4973297;28;20212;-74
2022/03/04 05:53:33;;;;;;;14.68;10.02;;;;;;;;;;4969830;28;20220;-74
2022/03/04 05:56:01;;;;;;;15.55;10.52;;;;;;;;;;4976787;28;20200;-74
2022/03/04 05:58:28;;;;;;;14.77;9.80;;;;;;;;;;4980199;28;20309;-75
2022/03/04 06:00:55;;;;;;;16.38;10.57;;;;;;;;;;4973323;28;20190;-75
2022/03/04 06:03:22;;;;;;;14.32;8.77;;;;;;;;;;4976620;28;20202;-74
2022/03/04 06:05:51;;;;;;;15.68;10.25;;;;;;;;;;4979620;28;20205;-74
2022/03/04 06:08:18;;;;;;;15.20;10.15;;;;;;;;;;4969644;28;20201;-74
2022/03/04 06:10:45;;;;;;;17.02;9.70;;;;;;;;;;4973355;28;20317;-74
2022/03/04 06:13:12;;;;;;;14.10;9.60;;;;;;;;;;4975110;28;20209;-74
2022/03/04 06:15:39;;;;;;;17.02;9.95;;;;;;;;;;4971640;28;20221;-77
2022/03/04 06:18:06;;;;;;;17.77;10.70;;;;;;;;;;4973421;28;20672;-74
2022/03/04 06:20:33;;;;;;;18.85;10.60;;;;;;;;;;4983499;28;20236;-78
2022/03/04 06:23:02;;;;;;;14.15;10.63;;;;;;;;;;4977996;28;20201;-74
2022/03/04 06:25:29;;;;;;;15.18;9.15;;;;;;;;;;4977093;28;20280;-74
2022/03/04 06:27:57;;;;;;;14.88;9.32;;;;;;;;;;4971845;28;20236;-75
2022/03/04 06:30:25;;;;;;;16.92;10.00;;;;;;;;;;4968522;28;20604;-75
2022/03/04 06:33:30;;;;;;;16.85;10.40;;;;;;;;;;4972105;28;20208;-74
2022/03/04 06:35:41;;;;;;;15.65;10.02;;;;;;;;;;4979991;28;20303;-74
2022/03/04 06:38:10;;;;;;;12.68;9.27;;;;;;;;;;4973681;28;20200;-77
2022/03/04 06:40:37;;;;;;;13.55;10.13;;;;;;;;;;4970485;28;20198;-76
2022/03/04 06:43:04;;;;;;;16.55;9.25;;;;;;;;;;4969388;28;20652;-78
2022/03/04 06:45:31;;;;;;;21.85;11.77;;;;;;;;;;4978624;28;20225;-74
2022/03/04 06:47:58;;;;;;;14.48;9.02;;;;;;;;;;4971456;28;20691;-77
2022/03/04 06:50:26;;;;;;;16.52;10.27;;;;;;;;;;4977908;28;20220;-74
2022/03/04 06:52:53;;;;;;;18.60;9.77;;;;;;;;;;4968800;28;20558;-74
2022/03/04 06:55:21;;;;;;;11.27;8.70;;;;;;;;;;4974413;28;20226;-75
2022/03/04 06:57:50;;;;;;;14.65;9.43;;;;;;;;;;4970502;28;20197;-76
2022/03/04 07:00:18;;;;;;;16.15;10.85;;;;;;;;;;4973351;28;20196;-73
2022/03/04 07:02:45;;;;;;;13.20;10.05;;;;;;;;;;4974494;28;20629;-75
2022/03/04 07:05:12;;;;;;;22.48;11.73;;;;;;;;;;4975885;28;20219;-73
2022/03/04 07:07:39;;;;;;;22.02;11.18;;;;;;;;;;4966167;28;20205;-74
2022/03/04 07:10:08;;;;;;;15.18;10.35;;;;;;;;;;4973699;28;20568;-77
2022/03/04 07:12:36;;;;;;;15.68;9.50;;;;;;;;;;4971781;28;20194;-75
2022/03/04 07:15:03;;;;;;;15.63;10.20;;;;;;;;;;4963728;28;20213;-75
2022/03/04 07:17:31;;;;;;;17.17;11.27;;;;;;;;;;4968803;28;20201;-76
2022/03/04 07:19:58;;;;;;;14.52;10.40;;;;;;;;;;4976241;28;20208;-74
2022/03/04 07:22:25;;;;;;;16.88;11.25;;;;;;;;;;4977125;28;20189;-76
2022/03/04 07:24:52;;;;;;;16.63;9.85;;;;;;;;;;4965576;28;20232;-75
2022/03/04 07:27:19;;;;;;;16.98;12.07;;;;;;;;;;4965351;28;20204;-75
2022/03/04 07:29:47;;;;;;;17.42;11.07;;;;;;;;;;4963770;28;20202;-75
2022/03/04 07:32:14;;;;;;;15.27;10.40;;;;;;;;;;4966739;28;20190;-74
2022/03/04 07:34:42;;;;;;;17.48;12.30;;;;;;;;;;4971112;28;20230;-74
2022/03/04 07:37:09;;;;;;;14.05;10.43;;;;;;;;;;4970442;28;20201;-75
2022/03/04 07:39:36;;;;;;;19.27;11.88;;;;;;;;;;4964458;28;20530;-75
2022/03/04 07:42:04;;;;;;;18.23;12.13;;;;;;;;;;4981796;28;20505;-74
2022/03/04 07:44:31;;;;;;;15.75;10.23;;;;;;;;;;4969042;28;20665;-75
2022/03/04 07:47:00;;;;;;;15.90;10.73;;;;;;;;;;4966891;28;20541;-74
2022/03/04 07:49:27;;;;;;;16.70;10.85;;;;;;;;;;4970599;28;20212;-74
2022/03/04 07:51:54;;;;;;;19.52;12.95;;;;;;;;;;4972123;28;20214;-74
2022/03/04 07:54:21;;;;;;;18.73;12.73;;;;;;;;;;4969725;28;20620;-76
2022/03/04 07:56:49;;;;;;;20.38;13.23;;;;;;;;;;4970769;28;20288;-74
2022/03/04 07:59:16;;;;;;;18.42;13.10;;;;;;;;;;4972175;28;20647;-75
2022/03/04 08:01:43;;;;;;;22.63;14.10;;;;;;;;;;4962889;28;20202;-75
2022/03/04 08:04:11;;;;;;;22.63;14.43;;;;;;;;;;4969301;28;20201;-74
2022/03/04 08:06:39;;;;;;;25.40;13.77;;;;;;;;;;4959518;28;20206;-75
2022/03/04 08:09:06;;;;;;;28.13;14.80;;;;;;;;;;4953010;28;20198;-78
2022/03/04 08:11:33;;;;;;;23.00;13.90;;;;;;;;;;4969466;28;20193;-74
2022/03/04 08:14:00;;;;;;;18.05;12.80;;;;;;;;;;4974727;28;20548;-74
2022/03/04 08:16:29;;;;;;;21.08;14.20;;;;;;;;;;4972840;28;20233;-74
2022/03/04 08:18:56;;;;;;;20.73;13.20;;;;;;;;;;4975487;28;20190;-75
2022/03/04 08:21:25;;;;;;;22.65;13.85;;;;;;;;;;4974686;28;20205;-75
2022/03/04 08:23:52;;;;;;;19.80;13.80;;;;;;;;;;4973005;28;20252;-79
2022/03/04 08:26:20;;;;;;;19.10;13.70;;;;;;;;;;4967955;28;20206;-79
2022/03/04 08:28:47;;;;;;;19.30;13.52;;;;;;;;;;4971761;28;20636;-79
2022/03/04 08:31:14;;;;;;;16.92;11.32;;;;;;;;;;4968797;28;20208;-80
2022/03/04 08:33:42;;;;;;;17.55;12.35;;;;;;;;;;4975198;28;20205;-76
2022/03/04 08:36:10;;;;;;;19.55;14.27;;;;;;;;;;4974586;28;20218;-78
2022/03/04 08:38:39;;;;;;;18.90;13.60;;;;;;;;;;4973158;28;20201;-80
2022/03/04 08:41:06;;;;;;;19.85;12.50;;;;;;;;;;4974791;28;20202;-82
2022/03/04 08:43:34;;;;;;;19.33;12.60;;;;;;;;;;4973501;28;20198;-79
2022/03/04 08:46:02;;;;;;;18.95;12.20;;;;;;;;;;4969318;28;20236;-79
2022/03/04 08:48:29;;;;;;;17.90;12.60;;;;;;;;;;4970095;28;20212;-81
2022/03/04 08:50:56;;;;;;;17.23;12.75;;;;;;;;;;4974039;28;20692;-77
2022/03/04 08:53:23;;;;;;;17.70;13.07;;;;;;;;;;4974159;28;20577;-80
2022/03/04 08:55:51;;;;;;;21.27;13.93;;;;;;;;;;4973756;28;20221;-79
2022/03/04 08:58:19;;;;;;;16.77;12.35;;;;;;;;;;4967615;28;20204;-80
2022/03/04 09:00:46;;;;;;;16.95;12.20;;;;;;;;;;4968182;28;20189;-80
2022/03/04 09:03:13;;;;;;;15.50;12.45;;;;;;;;;;4970106;28;20204;-75
2022/03/04 09:05:40;;;;;;;17.52;12.77;;;;;;;;;;4972044;28;20661;-74
2022/03/04 09:08:07;;;;;;;20.27;11.95;;;;;;;;;;4961271;28;20696;-74
2022/03/04 09:10:34;;;;;;;19.08;14.02;;;;;;;;;;4963065;28;20289;-75
2022/03/04 09:13:04;;;;;;;20.30;13.85;;;;;;;;;;4971676;28;20197;-75
2022/03/04 09:15:31;;;;;;;16.98;11.98;;;;;;;;;;4972254;28;20657;-74
2022/03/04 09:17:58;;;;;;;19.10;12.07;;;;;;;;;;4955832;28;20566;-74
2022/03/04 09:20:25;;;;;;;18.48;13.00;;;;;;;;;;4964738;28;20220;-75
2022/03/04 09:22:53;;;;;;;16.33;12.13;;;;;;;;;;4972470;28;20202;-74
2022/03/04 09:25:20;;;;;;;16.08;12.05;;;;;;;;;;4968078;28;20700;-75
2022/03/04 09:27:49;;;;;;;14.57;11.27;;;;;;;;;;4972957;28;20204;-75
2022/03/04 09:30:18;;;;;;;19.25;13.30;;;;;;;;;;4972502;28;20277;-74
2022/03/04 09:32:46;;;;;;;15.77;11.43;;;;;;;;;;4975761;28;20725;-74
2022/03/04 09:35:13;;;;;;;19.48;13.20;;;;;;;;;;4967246;28;20214;-74
2022/03/04 09:37:40;;;;;;;18.20;13.65;;;;;;;;;;4958109;28;20197;-74
2022/03/04 09:40:08;;;;;;;20.38;12.73;;;;;;;;;;4972683;28;20206;-77
2022/03/04 09:42:36;;;;;;;18.05;11.73;;;;;;;;;;4975688;28;20730;-74
2022/03/04 09:45:03;;;;;;;18.42;12.88;;;;;;;;;;4970676;28;20735;-74
2022/03/04 09:47:31;;;;;;;17.10;13.07;;;;;;;;;;4971855;28;20193;-75
2022/03/04 09:49:59;;;;;;;18.85;12.95;;;;;;;;;;4971927;28;20240;-73
2022/03/04 09:52:26;;;;;;;19.42;12.15;;;;;;;;;;4969822;28;20218;-76
2022/03/04 09:54:54;;;;;;;22.85;15.05;;;;;;;;;;4973947;28;20204;-74
2022/03/04 09:57:22;;;;;;;18.92;13.20;;;;;;;;;;4972685;28;20202;-75
2022/03/04 09:59:49;;;;;;;16.75;12.43;;;;;;;;;;4971443;28;20296;-74
2022/03/04 10:02:16;;;;;;;21.10;13.40;;;;;;;;;;4973081;28;20248;-74
2022/03/04 10:04:45;;;;;;;23.00;13.23;;;;;;;;;;4972722;28;20194;-74
2022/03/04 10:07:12;;;;;;;18.88;14.35;;;;;;;;;;4972945;28;20540;-75
2022/03/04 10:09:42;;;;;;;22.40;13.88;;;;;;;;;;4974535;28;20206;-73
2022/03/04 10:12:10;;;;;;;18.60;13.80;;;;;;;;;;4971206;28;20322;-74
2022/03/04 10:14:56;;;;;;;16.30;11.90;;;;;;;;;;4966257;28;20204;-74
2022/03/04 10:17:23;;;;;;;14.70;11.82;;;;;;;;;;4965345;28;20645;-74
2022/03/04 10:19:54;;;;;;;21.20;12.90;;;;;;;;;;4964873;28;20683;-76
2022/03/04 10:22:21;;;;;;;17.13;11.68;;;;;;;;;;4964595;28;20197;-76
2022/03/04 10:24:48;;;;;;;19.98;12.40;;;;;;;;;;4969926;28;20217;-74
2022/03/04 10:27:16;;;;;;;16.70;12.43;;;;;;;;;;4965768;28;20563;-73
2022/03/04 10:29:44;;;;;;;17.48;13.15;;;;;;;;;;4968642;28;20205;-75
2022/03/04 10:32:13;;;;;;;19.00;13.63;;;;;;;;;;4965929;28;20736;-74
2022/03/04 10:34:51;;;;;;;20.08;13.55;;;;;;;;;;4970019;28;20197;-80
2022/03/04 10:37:20;;;;;;;16.23;11.57;;;;;;;;;;4966262;28;20239;-75
2022/03/04 10:40:05;;;;;;;21.02;13.55;;;;;;;;;;4963575;28;20206;-75
2022/03/04 10:42:39;;;;;;;22.80;12.88;;;;;;;;;;4969230;28;20232;-80
2022/03/04 10:45:07;;;;;;;25.27;13.55;;;;;;;;;;4965136;28;20210;-77
2022/03/04 10:47:40;;;;;;;20.70;13.40;;;;;;;;;;4967240;28;20219;-76
2022/03/04 10:50:07;;;;;;;24.58;14.40;;;;;;;;;;4967204;28;20209;-76
2022/03/04 10:52:48;;;;;;;18.52;11.75;;;;;;;;;;4964535;28;20287;-76
2022/03/04 10:55:15;;;;;;;17.00;11.73;;;;;;;;;;4967621;28;20361;-75
2022/03/04 10:57:42;;;;;;;17.70;12.32;;;;;;;;;;4963418;28;20680;-75
2022/03/04 11:00:10;;;;;;;19.33;13.55;;;;;;;;;;4963544;28;20204;-75
2022/03/04 11:02:43;;;;;;;17.98;12.00;;;;;;;;;;4968585;28;20213;-75
2022/03/04 11:05:10;;;;;;;18.02;12.18;;;;;;;;;;4968815;28;20197;-75
2022/03/04 11:07:41;;;;;;;25.13;13.52;;;;;;;;;;4966405;28;20206;-76
2022/03/04 11:10:08;;;;;;;17.70;11.70;;;;;;;;;;4969580;28;20201;-74
2022/03/04 11:12:35;;;;;;;24.52;12.32;;;;;;;;;;4969112;28;20206;-75
2022/03/04 11:15:03;;;;;;;17.90;12.20;;;;;;;;;;4964350;28;20203;-74
2022/03/04 11:17:30;;;;;;;16.77;11.65;;;;;;;;;;4959961;28;20296;-74
2022/03/04 11:19:58;;;;;;;18.98;12.60;;;;;;;;;;4968751;28;20208;-75
2022/03/04 11:22:25;;;;;;;24.08;13.48;;;;;;;;;;4968452;28;20669;-75
2022/03/04 11:24:53;;;;;;;18.23;13.18;;;;;;;;;;4960212;28;20222;-76
2022/03/04 11:27:22;;;;;;;22.02;14.60;;;;;;;;;;4966185;28;20564;-75
2022/03/04 11:29:49;;;;;;;17.45;12.80;;;;;;;;;;4961800;28;20720;-74
2022/03/04 11:32:16;;;;;;;17.90;12.02;;;;;;;;;;4968751;28;20198;-76
2022/03/04 11:34:44;;;;;;;19.67;12.95;;;;;;;;;;4968052;28;20201;-74
2022/03/04 11:37:17;;;;;;;20.15;12.35;;;;;;;;;;4960609;28;20225;-74
2022/03/04 11:40:02;;;;;;;16.77;10.75;;;;;;;;;;4965784;28;20672;-74
2022/03/04 11:42:36;;;;;;;15.57;11.30;;;;;;;;;;4965827;28;20202;-75
2022/03/04 11:45:04;;;;;;;19.25;11.57;;;;;;;;;;4966740;28;20197;-76
2022/03/04 11:47:32;;;;;;;17.95;11.82;;;;;;;;;;4961806;28;20202;-75
2022/03/04 11:49:59;;;;;;;21.30;12.35;;;;;;;;;;4971311;28;20580;-75
2022/03/04 11:52:27;;;;;;;16.58;12.55;;;;;;;;;;4966595;28;20216;-75
2022/03/04 11:55:20;;;;;;;13.20;10.18;;;;;;;;;;4969212;28;20580;-74
2022/03/04 11:57:48;;;;;;;17.20;11.80;;;;;;;;;;4966907;28;20289;-75
2022/03/04 12:00:28;;;;;;;20.08;13.88;;;;;;;;;;4971847;28;20247;-77
2022/03/04 12:02:55;;;;;;;18.63;11.60;;;;;;;;;;4971468;28;20206;-75
2022/03/04 12:05:25;;;;;;;15.32;10.73;;;;;;;;;;4971588;28;20663;-76
2022/03/04 12:07:53;;;;;;;15.48;12.00;;;;;;;;;;4958484;28;20673;-74
2022/03/04 12:10:23;;;;;;;16.10;11.43;;;;;;;;;;4970783;28;20197;-75
2022/03/04 12:13:00;;;;;;;13.15;10.70;;;;;;;;;;4971094;28;20288;-76
2022/03/04 12:15:31;;;;;;;14.52;9.23;;;;;;;;;;4971934;28;20202;-74
2022/03/04 12:18:03;;;;;;;14.20;10.50;;;;;;;;;;4968421;28;20205;-75
2022/03/04 12:20:30;;;;;;;12.95;9.02;;;;;;;;;;4971715;28;20194;-75
2022/03/04 12:22:58;;;;;;;17.40;10.30;;;;;;;;;;4970453;28;20189;-74
2022/03/04 12:25:50;;;;;;;16.25;9.85;;;;;;;;;;4971979;28;20254;-75
2022/03/04 12:28:17;;;;;;;13.73;9.80;;;;;;;;;;4956282;28;20201;-74
2022/03/04 12:30:44;;;;;;;17.00;11.07;;;;;;;;;;4972206;28;20206;-76
2022/03/04 12:33:12;;;;;;;14.60;10.07;;;;;;;;;;4971151;28;20198;-74
2022/03/04 12:35:39;;;;;;;17.00;10.15;;;;;;;;;;4964582;28;20212;-75
2022/03/04 12:38:06;;;;;;;14.85;9.35;;;;;;;;;;4971237;28;20200;-74
2022/03/04 12:40:34;;;;;;;14.30;9.50;;;;;;;;;;4966526;28;20213;-74
2022/03/04 12:43:01;;;;;;;14.93;9.95;;;;;;;;;;4970632;28;20226;-75
2022/03/04 12:45:29;;;;;;;15.07;9.98;;;;;;;;;;4970211;28;20197;-76
2022/03/04 12:47:56;;;;;;;18.65;10.93;;;;;;;;;;4969866;28;20612;-76
2022/03/04 12:50:29;;;;;;;14.55;9.88;;;;;;;;;;4983337;28;20240;-74
2022/03/04 12:52:56;;;;;;;12.27;8.70;;;;;;;;;;4989627;28;20216;-74
2022/03/04 12:55:23;;;;;;;15.25;9.95;;;;;;;;;;4963720;28;20202;-76
2022/03/04 12:57:52;;;;;;;18.40;9.75;;;;;;;;;;4967760;28;20222;-75
2022/03/04 13:00:19;;;;;;;15.65;11.25;;;;;;;;;;4965741;28;20202;-73
2022/03/04 13:02:46;;;;;;;15.70;9.52;;;;;;;;;;4968283;28;20209;-75
2022/03/04 13:05:13;;;;;;;16.13;10.38;;;;;;;;;;4970683;28;20194;-74
2022/03/04 13:07:41;;;;;;;14.13;8.75;;;;;;;;;;4965947;28;20208;-75
2022/03/04 13:10:09;;;;;;;21.05;9.98;;;;;;;;;;4967471;28;20202;-75
2022/03/04 13:12:36;;;;;;;14.10;9.15;;;;;;;;;;4971322;28;20285;-75
2022/03/04 13:15:11;;;;;;;15.95;9.38;;;;;;;;;;4968512;28;20194;-75
2022/03/04 13:17:38;;;;;;;15.77;9.70;;;;;;;;;;4964966;28;20231;-75
2022/03/04 13:20:06;;;;;;;13.65;8.77;;;;;;;;;;4969524;28;20204;-77
2022/03/04 13:22:33;;;;;;;15.15;9.55;;;;;;;;;;4964560;28;20210;-75
2022/03/04 13:25:00;;;;;;;12.45;9.02;;;;;;;;;;4969805;28;20222;-74
2022/03/04 13:27:36;;;;;;;15.43;8.95;;;;;;;;;;4969766;28;20581;-73
2022/03/04 13:30:04;;;;;;;13.90;8.68;;;;;;;;;;4969614;28;20206;-76
2022/03/04 13:32:32;;;;;;;13.60;8.77;;;;;;;;;;4967165;28;20206;-76
2022/03/04 13:35:01;;;;;;;18.20;9.05;;;;;;;;;;4963318;28;20217;-74
2022/03/04 13:37:29;;;;;;;13.90;8.38;;;;;;;;;;4965832;28;20225;-74
2022/03/04 13:40:00;;;;;;;15.95;8.07;;;;;;;;;;4968797;28;20214;-75
2022/03/04 13:42:27;;;;;;;13.05;7.93;;;;;;;;;;4970647;28;20201;-74
2022/03/04 13:44:55;;;;;;;9.63;7.00;;;;;;;;;;4966412;28;20205;-74
2022/03/04 13:47:34;;;;;;;13.20;8.40;;;;;;;;;;4967706;28;20546;-74
2022/03/04 13:50:02;;;;;;;15.95;8.18;;;;;;;;;;4970356;28;20204;-75
2022/03/04 13:52:29;;;;;;;12.52;7.13;;;;;;;;;;4966834;28;20216;-74
2022/03/04 13:55:00;;;;;;;10.23;6.80;;;;;;;;;;4970208;28;20197;-74
2022/03/04 13:57:31;;;;;;;12.38;7.60;;;;;;;;;;4959087;28;20217;-74
2022/03/04 14:00:03;;;;;;;13.07;7.60;;;;;;;;;;4955183;28;20201;-75
2022/03/04 14:02:38;;;;;;;11.35;7.93;;;;;;;;;;4969583;28;20673;-75
2022/03/04 14:05:08;;;;;;;12.30;7.72;;;;;;;;;;4969062;28;20407;-76
2022/03/04 14:07:42;;;;;;;9.32;8.32;;;;;;;;;;4968681;28;20211;-74
2022/03/04 14:10:13;;;;;;;11.52;7.38;;;;;;;;;;4968287;28;20204;-74
2022/03/04 14:12:41;;;;;;;12.00;7.65;;;;;;;;;;4963819;28;20205;-74
2022/03/04 14:15:09;;;;;;;10.57;6.95;;;;;;;;;;4968488;28;20197;-76
2022/03/04 14:17:46;;;;;;;10.73;7.20;;;;;;;;;;4971892;28;20229;-75
2022/03/04 14:20:14;;;;;;;10.57;7.72;;;;;;;;;;4961598;28;20194;-75
2022/03/04 14:22:41;;;;;;;10.82;6.90;;;;;;;;;;4962594;28;20205;-74
2022/03/04 14:25:08;;;;;;;11.30;7.60;;;;;;;;;;4969016;28;20217;-78
2022/03/04 14:27:35;;;;;;;12.25;8.13;;;;;;;;;;4968743;28;20217;-75
2022/03/04 14:30:03;;;;;;;11.48;7.70;;;;;;;;;;4970660;28;20209;-75